DW8835 La Escala ES current weather conditions

sailwx.info

Wind from 347 at 7 knots gusting 15

Air temperature 15.6° C
Dewpoint 6.3° C

Last reported at 2015-Apr-27 23:46 UTC.
Time now 2015-Apr-28 00:31 UTC

Location: N 42°07' E 003°08'.
View on Google Maps.

See reports from other nearby stations

  
Tides and Currents Weather Stations Pressure Air Temp Water Temp Dewpoint Dewpoint Depression Visibility Wind Speed Wind Dir Waves Ship Positions
date/time (UTC)wind fromknots sea level pressurealtimeterstation pressurevisibilityair tempwater tempwave heightnotes
2015-Apr-27 23:46 347 7 gusting 15 15.6
2015-Apr-27 23:37 320 9 gusting 19 15.6
2015-Apr-27 23:27 296 10 gusting 17 15.6
2015-Apr-27 23:17 345 12 gusting 21 15.6
2015-Apr-27 23:07 023 11 gusting 19 15.6
2015-Apr-27 22:57 005 11 gusting 25 16.1
2015-Apr-27 22:46 332 10 gusting 21 16.1
2015-Apr-27 22:36 320 13 gusting 25 16.1
2015-Apr-27 22:26 349 13 gusting 20 15.6
2015-Apr-27 22:17 335 10 gusting 20 15.6
2015-Apr-27 22:07 334 13 gusting 20 16.1
2015-Apr-27 21:56 314 11 gusting 21 16.1
2015-Apr-27 21:46 355 11 gusting 26 16.7
2015-Apr-27 21:37 333 11 gusting 18 16.7
2015-Apr-27 21:26 337 12 gusting 23 16.7
2015-Apr-27 21:17 341 12 gusting 22 16.7
2015-Apr-27 21:06 290 11 gusting 19 16.7
2015-Apr-27 20:57 306 8 gusting 17 16.7
2015-Apr-27 20:46 276 10 gusting 19 16.7
2015-Apr-27 20:37 336 12 gusting 19 16.7
2015-Apr-27 20:26 316 11 gusting 17 16.7
2015-Apr-27 20:17 333 9 gusting 14 16.1
2015-Apr-27 20:07 325 7 gusting 17 16.1
2015-Apr-27 19:56 360 7 gusting 13 15.6
2015-Apr-27 19:47 329 5 gusting 9 15.6
2015-Apr-27 19:36 298 6 gusting 9 15.6
2015-Apr-27 19:27 348 5 gusting 8 15.6
2015-Apr-27 19:16 330 5 gusting 10 15.6
2015-Apr-27 19:07 328 7 gusting 13 15.0
2015-Apr-27 18:57 293 7 gusting 13 14.4
2015-Apr-27 18:47 305 3 gusting 5 14.4
2015-Apr-27 18:36 329 4 gusting 9 14.4
2015-Apr-27 18:27 271 3 gusting 5 14.4
2015-Apr-27 18:16 249 3 gusting 6 14.4
2015-Apr-27 18:06 251 2 gusting 6 14.4
2015-Apr-27 17:56 279 0 gusting 6 15.0
2015-Apr-27 17:46 226 2 gusting 5 15.0
2015-Apr-27 17:37 077 0 gusting 3 15.0
2015-Apr-27 17:27 078 0 gusting 2 15.0
2015-Apr-27 17:16 085 0 gusting 2 15.0
2015-Apr-27 17:06 124 0 gusting 1 15.0
2015-Apr-27 16:56 126 0 gusting 2 15.0
2015-Apr-27 16:46 213 0 gusting 2 15.0
2015-Apr-27 16:36 206 0 gusting 3 15.0
2015-Apr-27 16:26 202 0 gusting 4 15.0
2015-Apr-27 16:16 209 1 gusting 4 15.0
2015-Apr-27 16:06 204 2 gusting 6 15.0
2015-Apr-27 15:56 189 2 gusting 6 14.4
2015-Apr-27 15:46 185 3 gusting 6 15.0
2015-Apr-27 15:37 186 5 gusting 8 15.0
2015-Apr-27 15:26 184 5 gusting 8 14.4
2015-Apr-27 15:16 180 5 gusting 9 14.4
2015-Apr-27 15:06 173 3 gusting 9 14.4
2015-Apr-27 14:57 179 6 gusting 12 14.4
2015-Apr-27 14:46 196 6 gusting 12 14.4
2015-Apr-27 14:37 173 6 gusting 10 15.0
2015-Apr-27 14:26 160 4 gusting 6 15.0
2015-Apr-27 14:16 070 2 gusting 4 15.6
2015-Apr-27 14:07 173 0 gusting 6 15.6
2015-Apr-27 13:56 149 4 gusting 10 15.6
2015-Apr-27 13:46 192 5 gusting 10 16.1
2015-Apr-27 13:36 183 3 gusting 6 16.1
2015-Apr-27 13:27 179 3 gusting 8 16.1
2015-Apr-27 13:16 196 3 gusting 8 16.1
2015-Apr-27 13:06 236 3 gusting 7 15.6
2015-Apr-27 12:56 236 3 gusting 6 15.6
2015-Apr-27 12:47 194 3 gusting 7 16.1
2015-Apr-27 12:36 163 3 gusting 7 16.1
2015-Apr-27 12:26 259 1 gusting 3 15.6
2015-Apr-27 12:16 191 1 gusting 4 16.1
2015-Apr-27 12:07 244 2 gusting 5 15.6
2015-Apr-27 11:57 252 3 gusting 5 15.6
2015-Apr-27 11:47 248 2 gusting 4 15.6
2015-Apr-27 11:36 248 2 gusting 6 15.6
2015-Apr-27 11:26 229 3 gusting 4 15.0
2015-Apr-27 11:16 232 2 gusting 4 15.0
2015-Apr-27 11:06 262 1 gusting 4 14.4
2015-Apr-27 10:57 246 2 gusting 4 13.9
2015-Apr-27 10:46 230 4 gusting 6 13.9
2015-Apr-27 10:36 221 2 gusting 4 13.9
2015-Apr-27 10:26 206 2 gusting 4 13.9
2015-Apr-27 10:17 192 13.3
2015-Apr-27 10:07 192 0 gusting 2 13.3
2015-Apr-27 09:56 192 0 gusting 1 13.3
2015-Apr-27 09:46 191 13.3
2015-Apr-27 09:36 192 1 gusting 3 13.3
2015-Apr-27 09:26 191 1 gusting 3 12.8
2015-Apr-27 09:16 223 12.8
2015-Apr-27 09:06 228 12.8
2015-Apr-27 08:56 220 12.8
2015-Apr-27 08:46 205 2 gusting 4 12.8
2015-Apr-27 08:36 345 3 gusting 12 13.3
2015-Apr-27 08:26 315 6 gusting 8 13.9
2015-Apr-27 08:16 324 3 gusting 6 13.9
2015-Apr-27 08:06 300 2 gusting 5 13.9
2015-Apr-27 07:56 321 3 gusting 6 13.9
2015-Apr-27 07:46 319 3 gusting 6 13.9
2015-Apr-27 07:36 346 4 gusting 6 13.9
2015-Apr-27 07:26 318 1 gusting 6 13.9
2015-Apr-27 07:16 350 3 gusting 6 14.4
2015-Apr-27 07:06 327 1 gusting 4 14.4
2015-Apr-27 06:57 286 1 gusting 4 14.4
2015-Apr-27 06:46 281 2 gusting 4 14.4
2015-Apr-27 06:36 311 0 gusting 4 14.4
2015-Apr-27 06:27 301 2 gusting 4 13.9
2015-Apr-27 06:16 327 2 gusting 5 13.9
2015-Apr-27 06:06 319 4 gusting 6 13.9
2015-Apr-27 05:56 311 2 gusting 5 13.9
2015-Apr-27 05:46 319 2 gusting 4 13.9
2015-Apr-27 05:36 315 2 gusting 4 13.9
2015-Apr-27 05:26 327 3 gusting 5 13.9
2015-Apr-27 05:16 313 2 gusting 5 13.9
2015-Apr-27 05:06 314 2 gusting 4 13.9
2015-Apr-27 04:56 324 3 gusting 6 14.4
2015-Apr-27 04:46 355 2 gusting 5 14.4
2015-Apr-27 04:36 011 4 gusting 6 14.4
2015-Apr-27 04:26 014 1 gusting 3 14.4
2015-Apr-27 04:16 014 1 gusting 2 14.4
2015-Apr-27 04:06 016 14.4
2015-Apr-27 03:56 013 1 gusting 3 15.0
2015-Apr-27 03:46 355 2 gusting 6 15.0
2015-Apr-27 03:16 095 0 gusting 4 15.0
2015-Apr-27 03:06 087 0 gusting 6 15.0
2015-Apr-27 02:56 147 3 gusting 8 15.0
2015-Apr-27 02:46 117 4 gusting 7 14.4
2015-Apr-27 02:36 090 3 gusting 6 14.4
2015-Apr-27 02:26 134 0 gusting 4 14.4
2015-Apr-27 02:16 184 14.4
2015-Apr-27 02:06 184 14.4
2015-Apr-27 01:56 178 2 gusting 5 15.0
2015-Apr-27 01:46 155 1 gusting 2 15.0
2015-Apr-27 01:36 150 15.0
2015-Apr-27 01:26 150 15.0
2015-Apr-27 01:16 150 15.6
2015-Apr-27 01:06 151 15.6
2015-Apr-27 00:56 151 0 gusting 3 15.6
2015-Apr-27 00:46 137 15.6
2015-Apr-27 00:36 137 15.6
2015-Apr-27 00:26 137 15.6
2015-Apr-27 00:16 137 0 gusting 2 15.6
2015-Apr-27 00:06 137 0 gusting 2 16.1
2015-Apr-26 23:56 138 1 gusting 2 16.1
2015-Apr-26 23:46 136 16.1
2015-Apr-26 23:36 129 16.1
2015-Apr-26 23:26 129 0 gusting 2 16.1
2015-Apr-26 23:16 129 1 gusting 4 16.1
2015-Apr-26 23:06 089 16.1
2015-Apr-26 22:56 089 16.1
2015-Apr-26 22:46 042 0 gusting 2 16.1
2015-Apr-26 22:36 344 2 gusting 6 16.1
2015-Apr-26 22:26 023 2 gusting 3 16.1
2015-Apr-26 22:16 020 1 gusting 5 16.1
2015-Apr-26 22:06 248 0 gusting 5 16.7
2015-Apr-26 21:56 313 2 gusting 6 16.7
2015-Apr-26 21:46 271 1 gusting 7 16.7
2015-Apr-26 21:36 238 4 gusting 12 16.7
2015-Apr-26 21:26 194 8 gusting 12 16.7
2015-Apr-26 21:16 177 6 gusting 13 16.7
2015-Apr-26 21:06 169 7 gusting 12 16.7
2015-Apr-26 20:56 186 6 gusting 12 16.7
2015-Apr-26 20:46 188 6 gusting 10 16.7
2015-Apr-26 20:36 184 6 gusting 12 16.7
2015-Apr-26 20:26 190 6 gusting 10 16.7
2015-Apr-26 20:16 174 6 gusting 12 16.7
2015-Apr-26 20:06 198 5 gusting 8 16.7
2015-Apr-26 19:56 160 3 gusting 6 16.7
2015-Apr-26 19:46 178 4 gusting 9 16.7
2015-Apr-26 19:36 183 5 gusting 10 16.7
2015-Apr-26 19:26 184 5 gusting 9 16.7
2015-Apr-26 19:16 158 3 gusting 8 16.7
2015-Apr-26 19:06 148 5 gusting 8 16.7
2015-Apr-26 18:56 172 6 gusting 8 17.2
2015-Apr-26 18:46 187 6 gusting 12 17.2
2015-Apr-26 18:36 157 7 gusting 12 17.2
2015-Apr-26 18:26 163 6 gusting 12 17.2
2015-Apr-26 18:16 170 6 gusting 12 17.8
2015-Apr-26 18:06 180 6 gusting 13 17.8
2015-Apr-26 17:56 165 6 gusting 13 17.8
2015-Apr-26 17:46 187 6 gusting 13 17.8
2015-Apr-26 17:36 217 7 gusting 13 17.8
2015-Apr-26 17:26 169 6 gusting 13 17.8
2015-Apr-26 17:16 172 8 gusting 15 17.8
2015-Apr-26 17:06 174 7 gusting 13 17.8
2015-Apr-26 16:56 169 9 gusting 13 17.8
2015-Apr-26 16:46 169 8 gusting 15 18.3
2015-Apr-26 16:36 169 8 gusting 15 18.3
2015-Apr-26 16:26 167 8 gusting 16 18.3
2015-Apr-26 16:16 156 8 gusting 17 18.3
2015-Apr-26 16:06 178 8 gusting 16 18.3
2015-Apr-26 15:56 150 10 gusting 16 18.3
2015-Apr-26 15:46 150 9 gusting 14 18.3
2015-Apr-26 15:36 185 8 gusting 15 18.3
2015-Apr-26 15:26 158 10 gusting 16 18.9
2015-Apr-26 15:16 175 7 gusting 16 18.9
2015-Apr-26 15:06 171 8 gusting 15 19.4
2015-Apr-26 14:56 167 11 gusting 18 19.4
2015-Apr-26 14:46 194 7 gusting 17 20.0
2015-Apr-26 14:36 159 6 gusting 13 20.0
2015-Apr-26 14:26 173 9 gusting 19 20.6
2015-Apr-26 14:16 184 8 gusting 16 21.1
2015-Apr-26 14:06 155 11 gusting 19 21.1
2015-Apr-26 13:56 182 13 gusting 22 21.1
2015-Apr-26 13:46 167 8 gusting 19 20.6
2015-Apr-26 13:36 186 6 gusting 17 20.6
2015-Apr-26 13:26 173 6 gusting 14 20.0
2015-Apr-26 13:16 159 6 gusting 13 19.4
2015-Apr-26 13:06 179 9 gusting 16 19.4
2015-Apr-26 12:56 168 9 gusting 14 19.4
2015-Apr-26 12:46 158 10 gusting 16 19.4
2015-Apr-26 12:36 142 9 gusting 18 19.4
2015-Apr-26 12:26 148 11 gusting 18 20.0
2015-Apr-26 12:16 166 11 gusting 23 20.0
2015-Apr-26 12:06 174 12 gusting 19 20.6
2015-Apr-26 11:56 198 14 gusting 24 20.6
2015-Apr-26 11:46 180 13 gusting 21 20.6
2015-Apr-26 11:36 173 8 gusting 22 21.1
2015-Apr-26 11:26 184 10 gusting 19 21.7
2015-Apr-26 11:16 189 7 gusting 15 21.7
2015-Apr-26 11:06 175 7 gusting 15 21.1
2015-Apr-26 10:56 169 10 gusting 16 21.7
2015-Apr-26 10:46 188 7 gusting 14 22.2
2015-Apr-26 10:36 194 6 gusting 12 20.6
2015-Apr-26 10:26 164 5 gusting 10 20.6
2015-Apr-26 10:16 187 9 gusting 14 20.6
2015-Apr-26 10:06 215 4 gusting 12 20.6
2015-Apr-26 09:56 186 4 gusting 7 20.6
2015-Apr-26 09:46 188 4 gusting 6 19.4
2015-Apr-26 09:36 216 0 gusting 6 19.4
2015-Apr-26 09:26 281 2 gusting 7 18.9
2015-Apr-26 09:16 246 2 gusting 6 18.9
2015-Apr-26 09:06 155 4 gusting 7 18.3
2015-Apr-26 08:56 194 4 gusting 6 18.3
2015-Apr-26 08:46 196 3 gusting 7 17.8
2015-Apr-26 08:36 238 5 gusting 7 17.8
2015-Apr-26 08:26 186 4 gusting 10 17.8
2015-Apr-26 08:16 201 6 gusting 11 17.8
2015-Apr-26 08:06 182 4 gusting 9 17.2
2015-Apr-26 07:56 212 4 gusting 7 16.7
2015-Apr-26 07:46 226 2 gusting 10 16.7
2015-Apr-26 07:36 207 5 gusting 11 16.1
2015-Apr-26 07:26 186 6 gusting 11 16.1
2015-Apr-26 07:16 194 6 gusting 11 16.1
2015-Apr-26 07:06 170 6 gusting 9 16.1
2015-Apr-26 06:56 201 3 gusting 6 16.1
2015-Apr-26 06:46 186 4 gusting 6 15.6
2015-Apr-26 06:37 171 1 gusting 3 15.6
2015-Apr-26 06:26 169 0 gusting 1 15.6
2015-Apr-26 06:16 168 1 gusting 3 15.6
2015-Apr-26 06:06 180 2 gusting 4 15.6
2015-Apr-26 05:56 169 2 gusting 3 15.6
2015-Apr-26 05:46 185 0 gusting 3 15.6
2015-Apr-26 05:36 157 0 gusting 2 15.6
2015-Apr-26 05:26 156 1 gusting 3 15.6
2015-Apr-26 05:16 153 2 gusting 3 15.6
2015-Apr-26 05:06 194 15.6
2015-Apr-26 04:56 194 15.6
2015-Apr-26 04:46 194 15.6
2015-Apr-26 04:36 194 15.6
2015-Apr-26 04:26 194 15.6
2015-Apr-26 04:16 194 15.6
2015-Apr-26 04:06 194 15.6
2015-Apr-26 03:56 194 15.6
2015-Apr-26 03:46 194 15.6
2015-Apr-26 03:36 194 16.1
2015-Apr-26 03:26 194 16.1
2015-Apr-26 03:16 194 16.1
2015-Apr-26 03:06 194 16.1
2015-Apr-26 02:56 194 16.1
2015-Apr-26 02:46 194 16.1
2015-Apr-26 02:36 194 16.1
2015-Apr-26 02:26 193 16.1
2015-Apr-26 02:16 193 0 gusting 1 16.1
2015-Apr-26 02:06 193 0 gusting 3 16.7
2015-Apr-26 01:56 194 0 gusting 3 16.7
2015-Apr-26 01:46 189 16.7
2015-Apr-26 01:36 188 16.7
2015-Apr-26 01:26 188 16.7
2015-Apr-26 01:16 188 16.7
2015-Apr-26 01:06 188 0 gusting 1 16.7
2015-Apr-26 00:56 188 16.7
2015-Apr-26 00:46 188 0 gusting 1 16.7
2015-Apr-26 00:36 188 0 gusting 2 16.7
2015-Apr-26 00:26 188 16.7
2015-Apr-26 00:16 188 16.7
2015-Apr-26 00:06 180 16.7